HK7572F SKMR-SKCZ
Flight info
| Callsign | HK7572F |
|---|---|
| Flight time | 0h 18m |
| Altitude | 6000 |
| Route | MTR MTR1B |
| Aircraft | C208/L-SDFGR/C |
Departure
| Time | 2026-05-05 21:40 |
|---|---|
| Airport | Los Garzones Airport (SKMR) |
Arrival
| Time | 2026-05-05 21:58 |
|---|---|
| Airport | Las Brujas Airport (SKCZ) |
| Time | Latitude | Longitude | Altitude | Speed | Heading |
|---|---|---|---|---|---|
| 2026-05-05 21:28 | 8.82406 | -75.82434 | 35 ft | 0 kts | 319° |
| 2026-05-05 21:37 | 8.82411 | -75.82438 | 35 ft | 4 kts | 315° |
| 2026-05-05 21:37 | 8.82390 | -75.82476 | 35 ft | 7 kts | 185° |
| 2026-05-05 21:37 | 8.82331 | -75.82455 | 34 ft | 12 kts | 185° |
| 2026-05-05 21:38 | 8.82237 | -75.82460 | 32 ft | 14 kts | 179° |
| 2026-05-05 21:38 | 8.82161 | -75.82408 | 32 ft | 16 kts | 139° |
| 2026-05-05 21:38 | 8.82062 | -75.82315 | 30 ft | 22 kts | 139° |
| 2026-05-05 21:38 | 8.81958 | -75.82238 | 30 ft | 8 kts | 70° |
| 2026-05-05 21:39 | 8.81995 | -75.82253 | 30 ft | 4 kts | 316° |
| 2026-05-05 21:39 | 8.82008 | -75.82265 | 30 ft | 5 kts | 318° |
| 2026-05-05 21:39 | 8.82091 | -75.82340 | 31 ft | 37 kts | 316° |
| 2026-05-05 21:39 | 8.82418 | -75.82639 | 58 ft | 82 kts | 316° |
| 2026-05-05 21:40 | 8.82869 | -75.83069 | 252 ft | 92 kts | 315° |
| 2026-05-05 21:40 | 8.83437 | -75.83380 | 417 ft | 100 kts | 359° |
| 2026-05-05 21:40 | 8.83979 | -75.83021 | 718 ft | 92 kts | 56° |
| 2026-05-05 21:40 | 8.84163 | -75.82368 | 878 ft | 109 kts | 83° |
| 2026-05-05 21:41 | 8.84280 | -75.81511 | 917 ft | 134 kts | 56° |
| 2026-05-05 21:41 | 8.84913 | -75.80915 | 1325 ft | 117 kts | 41° |
| 2026-05-05 21:41 | 8.85366 | -75.80277 | 1725 ft | 111 kts | 53° |
| 2026-05-05 21:41 | 8.85817 | -75.79645 | 2029 ft | 112 kts | 52° |
| 2026-05-05 21:42 | 8.86285 | -75.78980 | 2299 ft | 118 kts | 52° |
| 2026-05-05 21:42 | 8.86773 | -75.78295 | 2567 ft | 121 kts | 52° |
| 2026-05-05 21:42 | 8.87271 | -75.77597 | 2838 ft | 123 kts | 52° |
| 2026-05-05 21:42 | 8.87780 | -75.76889 | 3110 ft | 126 kts | 53° |
| 2026-05-05 21:43 | 8.88298 | -75.76165 | 3374 ft | 128 kts | 53° |
| 2026-05-05 21:43 | 8.88825 | -75.75433 | 3641 ft | 129 kts | 53° |
| 2026-05-05 21:43 | 8.89355 | -75.74696 | 3910 ft | 130 kts | 53° |
| 2026-05-05 21:43 | 8.89889 | -75.73955 | 4179 ft | 131 kts | 54° |
| 2026-05-05 21:44 | 8.90427 | -75.73205 | 4451 ft | 131 kts | 54° |
| 2026-05-05 21:44 | 8.90963 | -75.72458 | 4716 ft | 131 kts | 54° |
| 2026-05-05 21:44 | 8.91498 | -75.71714 | 4974 ft | 130 kts | 54° |
| 2026-05-05 21:44 | 8.92021 | -75.70987 | 5232 ft | 130 kts | 54° |
| 2026-05-05 21:45 | 8.92558 | -75.70241 | 5497 ft | 129 kts | 54° |
| 2026-05-05 21:45 | 8.93078 | -75.69517 | 5758 ft | 129 kts | 55° |
| 2026-05-05 21:45 | 8.93605 | -75.68783 | 5994 ft | 132 kts | 55° |
| 2026-05-05 21:45 | 8.94179 | -75.67982 | 6012 ft | 148 kts | 55° |
| 2026-05-05 21:46 | 8.94807 | -75.67105 | 6019 ft | 159 kts | 55° |
| 2026-05-05 21:46 | 8.95470 | -75.66182 | 6017 ft | 165 kts | 55° |
| 2026-05-05 21:46 | 8.96157 | -75.65227 | 6022 ft | 169 kts | 55° |
| 2026-05-05 21:46 | 8.96855 | -75.64256 | 6017 ft | 172 kts | 55° |
| 2026-05-05 21:47 | 8.97560 | -75.63277 | 6020 ft | 173 kts | 55° |
| 2026-05-05 21:47 | 8.98270 | -75.62292 | 6019 ft | 174 kts | 55° |
| 2026-05-05 21:47 | 8.98980 | -75.61300 | 6023 ft | 174 kts | 55° |
| 2026-05-05 21:47 | 8.99692 | -75.60309 | 6023 ft | 174 kts | 55° |
| 2026-05-05 21:48 | 9.00406 | -75.59317 | 6025 ft | 175 kts | 55° |
| 2026-05-05 21:48 | 9.01123 | -75.58320 | 6027 ft | 175 kts | 55° |
| 2026-05-05 21:48 | 9.01842 | -75.57318 | 6027 ft | 176 kts | 55° |
| 2026-05-05 21:48 | 9.02556 | -75.56322 | 6027 ft | 175 kts | 55° |
| 2026-05-05 21:49 | 9.03271 | -75.55329 | 6023 ft | 174 kts | 55° |
| 2026-05-05 21:49 | 9.03979 | -75.54343 | 6025 ft | 173 kts | 55° |
| 2026-05-05 21:49 | 9.04687 | -75.53358 | 6028 ft | 173 kts | 55° |
| 2026-05-05 21:49 | 9.05396 | -75.52370 | 6026 ft | 174 kts | 55° |
| 2026-05-05 21:50 | 9.06108 | -75.51381 | 6025 ft | 174 kts | 55° |
| 2026-05-05 21:50 | 9.06819 | -75.50389 | 6026 ft | 174 kts | 54° |
| 2026-05-05 21:50 | 9.07532 | -75.49396 | 6020 ft | 174 kts | 55° |
| 2026-05-05 21:50 | 9.08242 | -75.48404 | 6028 ft | 174 kts | 55° |
| 2026-05-05 21:51 | 9.08955 | -75.47414 | 6021 ft | 174 kts | 55° |
| 2026-05-05 21:51 | 9.09667 | -75.46424 | 6009 ft | 174 kts | 55° |
| 2026-05-05 21:51 | 9.10371 | -75.45443 | 5999 ft | 174 kts | 55° |
| 2026-05-05 21:51 | 9.11078 | -75.44459 | 5998 ft | 172 kts | 55° |
| 2026-05-05 21:52 | 9.12480 | -75.42509 | 5883 ft | 175 kts | 55° |
| 2026-05-05 21:52 | 9.13210 | -75.41495 | 5618 ft | 178 kts | 55° |
| 2026-05-05 21:52 | 9.13932 | -75.40485 | 5348 ft | 174 kts | 55° |
| 2026-05-05 21:53 | 9.14630 | -75.39516 | 5087 ft | 169 kts | 55° |
| 2026-05-05 21:53 | 9.15311 | -75.38563 | 4824 ft | 166 kts | 55° |
| 2026-05-05 21:53 | 9.16003 | -75.37599 | 4555 ft | 172 kts | 55° |
| 2026-05-05 21:53 | 9.16708 | -75.36618 | 4300 ft | 174 kts | 55° |
| 2026-05-05 21:54 | 9.17424 | -75.35624 | 4031 ft | 175 kts | 54° |
| 2026-05-05 21:54 | 9.18173 | -75.34701 | 3994 ft | 164 kts | 47° |
| 2026-05-05 21:54 | 9.19015 | -75.33933 | 3825 ft | 167 kts | 35° |
| 2026-05-05 21:54 | 9.20046 | -75.33428 | 3561 ft | 162 kts | 21° |
| 2026-05-05 21:55 | 9.21099 | -75.33048 | 3227 ft | 160 kts | 20° |
| 2026-05-05 21:55 | 9.22153 | -75.32661 | 2868 ft | 163 kts | 20° |
| 2026-05-05 21:55 | 9.23241 | -75.32258 | 2621 ft | 171 kts | 20° |
| 2026-05-05 21:55 | 9.24355 | -75.31847 | 2382 ft | 168 kts | 20° |
| 2026-05-05 21:56 | 9.25432 | -75.31444 | 2151 ft | 162 kts | 19° |
| 2026-05-05 21:56 | 9.26473 | -75.31059 | 1921 ft | 157 kts | 18° |
| 2026-05-05 21:56 | 9.27498 | -75.30677 | 1695 ft | 159 kts | 18° |
| 2026-05-05 21:56 | 9.28544 | -75.30304 | 1576 ft | 157 kts | 16° |
| 2026-05-05 21:57 | 9.29539 | -75.29877 | 1321 ft | 153 kts | 22° |
| 2026-05-05 21:57 | 9.30446 | -75.29524 | 1087 ft | 135 kts | 14° |
| 2026-05-05 21:57 | 9.31296 | -75.29230 | 906 ft | 121 kts | 17° |
| 2026-05-05 21:57 | 9.32013 | -75.28967 | 725 ft | 93 kts | 14° |
| 2026-05-05 21:58 | 9.32563 | -75.28776 | 583 ft | 76 kts | 14° |
| 2026-05-05 21:58 | 9.33005 | -75.28622 | 544 ft | 59 kts | 22° |
| 2026-05-05 21:58 | 9.33239 | -75.28528 | 544 ft | 18 kts | 20° |
| 2026-05-05 21:58 | 9.33272 | -75.28440 | 545 ft | 15 kts | 65° |
| 2026-05-05 21:59 | 9.33336 | -75.28408 | 548 ft | 3 kts | 73° |
| 2026-05-05 21:59 | 9.33328 | -75.28375 | 548 ft | 4 kts | 109° |
| 2026-05-05 21:59 | 9.33324 | -75.28364 | 548 ft | 0 kts | 116° |